Eaton, OH

10:43 PM EDT on June 25, 2017 (GMT -0400)
KOHEATON2 | | Change Station

Elev 997 ft 39.74 °N, 84.60 °W | Updated 14 seconds ago

Partly Cloudy
Partly Cloudy
60.1 °F
Feels Like 60.1 °F
N
0.0
Wind Variable Wind from WNW
Gusts 0.0 mph

Today
High -- | Low -- °F
--% Chance of Precip.
Yesterday
High -- | Low -- °F
Precip. -- in
Pressure 30.14 in
Visibility 10.0 miles
Clouds Scattered Clouds 9000 ft
Dew Point 52 °F
Humidity 76%
Rainfall 0.00 in
Snow Depth Not available.
6:11 AM 9:10 PM
Waxing Crescent, 6% visible
METAR KMWO 260235Z AUTO 25003KT 10SM SCT090 16/12 A3014 RMK AO2 T01630115
Pressure 30.14 in
Visibility 10.0 miles
Clouds Scattered Clouds 9000 ft
Dew Point 52 °F
Humidity 76%
Rainfall 0.00 in
Snow Depth Not available.
6:11 AM 9:10 PM
Waxing Crescent, 6% visible
METAR KMWO 260235Z AUTO 25003KT 10SM SCT090 16/12 A3014 RMK AO2 T01630115

Get Severe Weather Alerts

Thanks for signing up!

Be on the lookout for a verification email in your inbox.

You'll start receiving the daily forecast at 6 AM.

×

10-Day Weather Forecast

Almanac

Astronomy

Jun. 25, 2017 Rise Set
Actual Time
Civil Twilight
Nautical Twilight
Astronomical Twilight
Moon
Length of Visible Light
Length of Day
Tomorrow will be .
, % of the Moon is Illuminated

Today's Extremes

State Highs State Lows

Community

WunderPhotos

Category 6

Welcome to Category 6. This is the collective home for Weather Underground's featured writeups by Dr. Jeff Masters (right), Bob Henson (left), Chris Burt, and other regular contributors.

Nearby

Air Quality

  Air Quality AQ Index Pollutant
Not available.

Snow Depth

Station Depth Elevation

Earthquake Activity

City Distance Mag. Time & Date
Minimum magnitude displayed is 2.5.

Coastal Water Temperatures

Place Temperature

Stations

Nearby Weather Stations

Station Location Temp. Windchill Dew Point Humidity Wind Precip. Elev Updated Type
                   

Watches & Warnings

There are currently no watches in effect.